»·PEaware :: ASA1658 KSEA-KPDX

ASA1658 :: KSEA-KPDX

FLIGHT INFORMATION

Flight Status: Arrived
Operator:
Alaska Airlines
More flights by this operator :: More flights under this callsign
Pilot: Peter N. (19445)
Aircraft: BOEING 737-800
(B738)
More flights by this aircraft type
Origin: KSEA Seattle-Tacoma Intl
United States
Destination: KPDX Portland Intl
United States
More flights between these airports :: More routes between these airports
Route: +SEA6 SEA BUWZO KRATR2
File this flight plan on PilotEdge
Remarks:
Altitude:
(Current/Filed)
170ft
Speed:
(Current/Filed)
447kts
Departed: 12-Jul-18 02:10 PM
Arrived: 12-Jul-18 02:46 PM
Distance/Time
Traveled:
112nm/0:36
Distance/Time
To Go:
Arrived

Flight Plot

Page will automatically refresh every two minutes.

Flight plan parsing failed; only flown route is shown


Map Options




Map Legend


Flown Route
Filed Route
Departure Airport
Arrival Airport
Navaid (VOR, NDB)
Fix

Horizontal Profiles

Position Reports

Time Latitude Longitude Heading Altitude Ground
Speed
12-Jul-18 13:49 47.445771 -122.301198 128 441ft 0kts
12-Jul-18 13:50 47.445771 -122.301198 128 441ft 0kts
12-Jul-18 13:51 47.445771 -122.301198 128 441ft 0kts
12-Jul-18 13:52 47.445771 -122.301198 128 441ft 0kts
12-Jul-18 13:53 47.445771 -122.301198 128 441ft 0kts
12-Jul-18 13:54 47.445771 -122.301198 128 441ft 0kts
12-Jul-18 13:55 47.445771 -122.301198 128 441ft 0kts
12-Jul-18 13:56 47.445771 -122.301198 128 441ft 0kts
12-Jul-18 13:57 47.445771 -122.301198 128 441ft 0kts
12-Jul-18 13:58 47.445771 -122.301198 128 441ft 0kts
12-Jul-18 13:59 47.445771 -122.301198 128 441ft 0kts
12-Jul-18 14:00 47.445771 -122.301198 128 441ft 0kts
12-Jul-18 14:01 47.445771 -122.301198 128 441ft 0kts
12-Jul-18 14:02 47.445771 -122.301198 128 441ft 0kts
12-Jul-18 14:03 47.446028 -122.301826 87 441ft 2kts
12-Jul-18 14:04 47.445823 -122.302265 28 441ft 0kts
12-Jul-18 14:05 47.445823 -122.302264 28 441ft 0kts
12-Jul-18 14:06 47.447443 -122.304625 272 441ft 13kts
12-Jul-18 14:07 47.447058 -122.306306 198 441ft 18kts
12-Jul-18 14:08 47.440427 -122.306360 182 441ft 25kts
12-Jul-18 14:09 47.435055 -122.305556 178 441ft 23kts
12-Jul-18 14:10 47.431855 -122.306364 253 441ft 0kts
12-Jul-18 14:11 47.434291 -122.307987 0 441ft 52kts
12-Jul-18 14:12 47.477321 -122.308950 356 2051ft 197kts
12-Jul-18 14:13 47.535232 -122.313430 356 4453ft 243kts
12-Jul-18 14:14 47.593710 -122.273298 65 7365ft 277kts
12-Jul-18 14:15 47.603177 -122.155342 85 10224ft 304kts
12-Jul-18 14:16 47.608946 -122.023161 94 12591ft 341kts
12-Jul-18 14:17 47.552232 -121.917939 164 15008ft 355kts
12-Jul-18 14:18 47.460184 -121.942937 207 16703ft 346kts
12-Jul-18 14:19 47.367757 -122.008355 208 16994ft 386kts
12-Jul-18 14:20 47.267808 -122.079903 208 17001ft 413kts
12-Jul-18 14:21 47.164604 -122.153879 208 17010ft 421kts
12-Jul-18 14:22 47.059322 -122.229266 208 17008ft 421kts
12-Jul-18 14:23 46.958519 -122.315905 201 17001ft 430kts
12-Jul-18 14:24 46.853947 -122.313818 176 16998ft 438kts
12-Jul-18 14:25 46.734468 -122.311370 180 17008ft 437kts
12-Jul-18 14:26 46.620023 -122.310933 180 17127ft 440kts
12-Jul-18 14:27 46.503074 -122.310646 180 15657ft 408kts
12-Jul-18 14:28 46.400430 -122.310467 180 13408ft 349kts
12-Jul-18 14:29 46.309738 -122.310352 180 11707ft 314kts
12-Jul-18 14:30 46.226444 -122.325957 201 11062ft 304kts
12-Jul-18 14:31 46.147702 -122.369796 201 10680ft 302kts
12-Jul-18 14:32 46.079204 -122.407884 201 10079ft 295kts
12-Jul-18 14:33 46.002220 -122.449488 201 8777ft 303kts
12-Jul-18 14:34 45.926714 -122.490282 201 7839ft 270kts
12-Jul-18 14:35 45.857869 -122.487979 203 7505ft 276kts
12-Jul-18 14:36 45.810523 -122.571743 247 6124ft 264kts
12-Jul-18 14:37 45.781720 -122.658884 239 5017ft 232kts
12-Jul-18 14:38 45.730007 -122.641219 125 5034ft 241kts
12-Jul-18 14:39 45.691852 -122.564410 124 5035ft 237kts
12-Jul-18 14:40 45.653551 -122.487922 124 5007ft 239kts
12-Jul-18 14:41 45.615079 -122.411774 124 4429ft 228kts
12-Jul-18 14:42 45.567431 -122.364410 191 3561ft 223kts
12-Jul-18 14:43 45.518685 -122.403095 267 3037ft 204kts
12-Jul-18 14:44 45.534995 -122.472710 303 2210ft 209kts
12-Jul-18 14:45 45.559012 -122.529119 298 821ft 144kts
12-Jul-18 14:46 45.577471 -122.576281 300 160ft 143kts
12-Jul-18 14:47 45.588298 -122.602081 336 37ft 14kts
12-Jul-18 14:48 45.588782 -122.599755 118 36ft 20kts
12-Jul-18 14:49 45.588365 -122.596326 41 37ft 0kts
12-Jul-18 14:50 45.588365 -122.596326 41 37ft 0kts

Navigation Log

Ident Type
Flight plan parsing failed, navigation log unavailable